sensor_id;sensor_type;location;lat;lon;timestamp;pressure;altitude;pressure_sealevel;temperature;humidity
74474;BME280;62922;-6.168;106.796;2023-02-28T00:02:19;101214.81;;;28.06;74.62
74474;BME280;62922;-6.168;106.796;2023-02-28T00:04:44;101216.50;;;28.07;74.88
74474;BME280;62922;-6.168;106.796;2023-02-28T00:07:11;101213.69;;;28.07;75.18
74474;BME280;62922;-6.168;106.796;2023-02-28T00:09:39;101227.72;;;28.07;75.21
74474;BME280;62922;-6.168;106.796;2023-02-28T00:12:05;101230.00;;;28.05;75.29
74474;BME280;62922;-6.168;106.796;2023-02-28T00:14:35;101231.94;;;28.05;74.79
74474;BME280;62922;-6.168;106.796;2023-02-28T00:17:01;101235.59;;;28.05;74.82
74474;BME280;62922;-6.168;106.796;2023-02-28T00:19:27;101238.94;;;28.07;74.72
74474;BME280;62922;-6.168;106.796;2023-02-28T00:21:53;101249.31;;;28.07;75.09
74474;BME280;62922;-6.168;106.796;2023-02-28T00:24:21;101249.63;;;28.05;74.97
74474;BME280;62922;-6.168;106.796;2023-02-28T00:26:47;101254.38;;;28.05;74.86
74474;BME280;62922;-6.168;106.796;2023-02-28T00:29:13;101256.88;;;28.06;75.05
74474;BME280;62922;-6.168;106.796;2023-02-28T00:31:39;101261.97;;;28.04;74.82
74474;BME280;62922;-6.168;106.796;2023-02-28T00:34:05;101266.47;;;28.05;75.30
74474;BME280;62922;-6.168;106.796;2023-02-28T00:36:31;101260.00;;;28.05;74.94
74474;BME280;62922;-6.168;106.796;2023-02-28T00:38:59;101264.78;;;28.04;75.00
74474;BME280;62922;-6.168;106.796;2023-02-28T00:41:25;101257.50;;;28.03;75.04
74474;BME280;62922;-6.168;106.796;2023-02-28T00:43:51;101268.41;;;28.05;74.86
74474;BME280;62922;-6.168;106.796;2023-02-28T00:46:17;101266.75;;;28.04;74.84
74474;BME280;62922;-6.168;106.796;2023-02-28T00:48:43;101259.16;;;28.04;75.17
74474;BME280;62922;-6.168;106.796;2023-02-28T00:51:08;101277.16;;;28.03;75.55
74474;BME280;62922;-6.168;106.796;2023-02-28T00:53:34;101275.19;;;28.04;75.18
74474;BME280;62922;-6.168;106.796;2023-02-28T00:56:00;101277.16;;;28.03;75.32
74474;BME280;62922;-6.168;106.796;2023-02-28T00:58:28;101282.75;;;28.03;75.25
74474;BME280;62922;-6.168;106.796;2023-02-28T01:00:55;101278.78;;;28.04;75.73
74474;BME280;62922;-6.168;106.796;2023-02-28T01:03:21;101287.53;;;28.03;75.52
74474;BME280;62922;-6.168;106.796;2023-02-28T01:05:47;101287.53;;;28.03;75.43
74474;BME280;62922;-6.168;106.796;2023-02-28T01:08:14;101297.63;;;28.04;75.72
74474;BME280;62922;-6.168;106.796;2023-02-28T01:10:40;101290.88;;;28.05;75.73
74474;BME280;62922;-6.168;106.796;2023-02-28T01:13:05;101290.03;;;28.04;75.70
74474;BME280;62922;-6.168;106.796;2023-02-28T01:15:31;101294.81;;;28.04;75.70
74474;BME280;62922;-6.168;106.796;2023-02-28T01:17:58;101287.22;;;28.04;75.43
74474;BME280;62922;-6.168;106.796;2023-02-28T01:20:24;101286.41;;;28.04;75.58
74474;BME280;62922;-6.168;106.796;2023-02-28T01:22:49;101279.63;;;28.05;75.39
74474;BME280;62922;-6.168;106.796;2023-02-28T01:25:15;101281.59;;;28.04;75.56
74474;BME280;62922;-6.168;106.796;2023-02-28T01:27:41;101293.66;;;28.05;75.35
74474;BME280;62922;-6.168;106.796;2023-02-28T01:30:08;101288.06;;;28.05;75.77
74474;BME280;62922;-6.168;106.796;2023-02-28T01:32:34;101285.25;;;28.05;75.76
74474;BME280;62922;-6.168;106.796;2023-02-28T01:35:00;101284.94;;;28.06;75.74
74474;BME280;62922;-6.168;106.796;2023-02-28T01:37:26;101287.75;;;28.06;75.51
74474;BME280;62922;-6.168;106.796;2023-02-28T01:39:52;101280.47;;;28.05;75.42
74474;BME280;62922;-6.168;106.796;2023-02-28T01:42:18;101290.88;;;28.05;75.50
74474;BME280;62922;-6.168;106.796;2023-02-28T01:47:15;101285.78;;;28.07;75.50
74474;BME280;62922;-6.168;106.796;2023-02-28T01:49:41;101291.41;;;28.07;75.66
74474;BME280;62922;-6.168;106.796;2023-02-28T01:52:07;101287.44;;;28.08;75.60
74474;BME280;62922;-6.168;106.796;2023-02-28T01:54:33;101281.81;;;28.08;75.61
74474;BME280;62922;-6.168;106.796;2023-02-28T01:57:02;101281.81;;;28.08;75.64
74474;BME280;62922;-6.168;106.796;2023-02-28T01:59:31;101287.97;;;28.10;75.15
74474;BME280;62922;-6.168;106.796;2023-02-28T02:01:59;101275.94;;;28.09;75.37
74474;BME280;62922;-6.168;106.796;2023-02-28T02:04:26;101271.13;;;28.10;75.70
74474;BME280;62922;-6.168;106.796;2023-02-28T02:06:53;101270.34;;;28.09;75.00
74474;BME280;62922;-6.168;106.796;2023-02-28T02:09:20;101280.41;;;28.10;75.03
74474;BME280;62922;-6.168;106.796;2023-02-28T02:11:46;101276.44;;;28.11;75.60
74474;BME280;62922;-6.168;106.796;2023-02-28T02:29:03;101270.56;;;28.13;74.78
74474;BME280;62922;-6.168;106.796;2023-02-28T02:36:35;101260.69;;;28.15;74.50
74474;BME280;62922;-6.168;106.796;2023-02-28T02:41:35;101261.22;;;28.17;74.53
74474;BME280;62922;-6.168;106.796;2023-02-28T02:46:32;101269.00;;;28.20;74.33
74474;BME280;62922;-6.168;106.796;2023-02-28T02:49:00;101277.44;;;28.20;74.30
74474;BME280;62922;-6.168;106.796;2023-02-28T02:51:27;101269.84;;;28.21;73.94
74474;BME280;62922;-6.168;106.796;2023-02-28T02:53:56;101273.19;;;28.23;73.93
74474;BME280;62922;-6.168;106.796;2023-02-28T02:56:23;101272.88;;;28.24;74.28
74474;BME280;62922;-6.168;106.796;2023-02-28T02:58:51;101272.56;;;28.26;73.65
74474;BME280;62922;-6.168;106.796;2023-02-28T03:01:20;101272.56;;;28.26;74.05
74474;BME280;62922;-6.168;106.796;2023-02-28T03:04:04;101281.53;;;28.28;74.39
74474;BME280;62922;-6.168;106.796;2023-02-28T03:06:32;101277.59;;;28.29;73.57
74474;BME280;62922;-6.168;106.796;2023-02-28T03:08:58;101275.34;;;28.31;73.86
74474;BME280;62922;-6.168;106.796;2023-02-28T03:11:25;101276.13;;;28.31;74.01
74474;BME280;62922;-6.168;106.796;2023-02-28T03:21:18;101276.09;;;28.36;73.48
74474;BME280;62922;-6.168;106.796;2023-02-28T03:23:53;101280.22;;;28.39;73.58
74474;BME280;62922;-6.168;106.796;2023-02-28T03:26:23;101279.97;;;28.40;73.80
74474;BME280;62922;-6.168;106.796;2023-02-28T03:28:53;101280.47;;;28.42;73.83
74474;BME280;62922;-6.168;106.796;2023-02-28T03:31:25;101268.94;;;28.44;73.53
74474;BME280;62922;-6.168;106.796;2023-02-28T03:33:55;101273.41;;;28.45;73.77
74474;BME280;62922;-6.168;106.796;2023-02-28T03:36:27;101275.91;;;28.46;73.61
74474;BME280;62922;-6.168;106.796;2023-02-28T03:41:23;101261.28;;;28.49;73.44
74474;BME280;62922;-6.168;106.796;2023-02-28T03:43:53;101262.09;;;28.50;73.40
74474;BME280;62922;-6.168;106.796;2023-02-28T03:46:21;101264.59;;;28.51;73.30
74474;BME280;62922;-6.168;106.796;2023-02-28T03:48:57;101261.53;;;28.53;73.36
74474;BME280;62922;-6.168;106.796;2023-02-28T03:51:26;101253.91;;;28.53;73.36
74474;BME280;62922;-6.168;106.796;2023-02-28T03:53:55;101248.84;;;28.55;72.85
74474;BME280;62922;-6.168;106.796;2023-02-28T03:56:32;101245.72;;;28.57;73.14
74474;BME280;62922;-6.168;106.796;2023-02-28T04:01:45;101242.84;;;28.62;72.94
74474;BME280;62922;-6.168;106.796;2023-02-28T04:04:12;101236.06;;;28.63;73.01
74474;BME280;62922;-6.168;106.796;2023-02-28T04:06:40;101217.78;;;28.65;72.75
74474;BME280;62922;-6.168;106.796;2023-02-28T04:09:07;101220.28;;;28.67;73.04
74474;BME280;62922;-6.168;106.796;2023-02-28T04:11:34;101215.19;;;28.69;72.89
74474;BME280;62922;-6.168;106.796;2023-02-28T04:14:05;101209.78;;;28.72;72.59
74474;BME280;62922;-6.168;106.796;2023-02-28T04:16:31;101197.94;;;28.75;72.77
74474;BME280;62922;-6.168;106.796;2023-02-28T04:18:58;101185.56;;;28.77;72.72
74474;BME280;62922;-6.168;106.796;2023-02-28T04:21:29;101182.13;;;28.80;72.66
74474;BME280;62922;-6.168;106.796;2023-02-28T04:23:55;101177.03;;;28.82;72.90
74474;BME280;62922;-6.168;106.796;2023-02-28T04:26:29;101180.38;;;28.84;72.68
74474;BME280;62922;-6.168;106.796;2023-02-28T04:28:56;101167.16;;;28.84;72.16
74474;BME280;62922;-6.168;106.796;2023-02-28T04:31:22;101164.88;;;28.86;72.11
74474;BME280;62922;-6.168;106.796;2023-02-28T04:33:48;101153.66;;;28.86;72.32
74474;BME280;62922;-6.168;106.796;2023-02-28T04:36:13;101155.81;;;28.89;71.98
74474;BME280;62922;-6.168;106.796;2023-02-28T04:38:40;101151.84;;;28.90;71.95
74474;BME280;62922;-6.168;106.796;2023-02-28T04:41:05;101144.78;;;28.93;71.94
74474;BME280;62922;-6.168;106.796;2023-02-28T04:43:31;101150.63;;;28.96;71.91
74474;BME280;62922;-6.168;106.796;2023-02-28T04:45:58;101144.38;;;28.99;71.36
74474;BME280;62922;-6.168;106.796;2023-02-28T04:48:29;101128.56;;;29.03;71.54
74474;BME280;62922;-6.168;106.796;2023-02-28T04:50:55;101144.50;;;29.08;71.59
74474;BME280;62922;-6.168;106.796;2023-02-28T04:53:25;101123.34;;;29.10;71.07
74474;BME280;62922;-6.168;106.796;2023-02-28T04:55:51;101117.47;;;29.12;71.16
74474;BME280;62922;-6.168;106.796;2023-02-28T04:58:16;101113.19;;;29.14;71.21
74474;BME280;62922;-6.168;106.796;2023-02-28T05:00:42;101121.00;;;29.17;71.32
74474;BME280;62922;-6.168;106.796;2023-02-28T05:03:08;101126.00;;;29.20;71.09
74474;BME280;62922;-6.168;106.796;2023-02-28T05:05:35;101122.00;;;29.21;70.94
74474;BME280;62922;-6.168;106.796;2023-02-28T05:08:00;101130.97;;;29.23;70.77
74474;BME280;62922;-6.168;106.796;2023-02-28T05:10:26;101108.69;;;29.27;71.07
74474;BME280;62922;-6.168;106.796;2023-02-28T05:12:52;101113.19;;;29.28;70.71
74474;BME280;62922;-6.168;106.796;2023-02-28T05:15:18;101122.94;;;29.30;70.76
74474;BME280;62922;-6.168;106.796;2023-02-28T05:17:44;101122.66;;;29.32;70.94
74474;BME280;62922;-6.168;106.796;2023-02-28T05:20:10;101100.34;;;29.35;70.88
74474;BME280;62922;-6.168;106.796;2023-02-28T05:22:39;101110.13;;;29.38;70.92
74474;BME280;62922;-6.168;106.796;2023-02-28T05:25:05;101093.78;;;29.40;70.80
74474;BME280;62922;-6.168;106.796;2023-02-28T05:27:32;101080.22;;;29.42;70.88
74474;BME280;62922;-6.168;106.796;2023-02-28T05:29:58;101068.34;;;29.45;70.61
74474;BME280;62922;-6.168;106.796;2023-02-28T05:32:24;101056.81;;;29.46;70.74
74474;BME280;62922;-6.168;106.796;2023-02-28T05:34:50;101069.69;;;29.47;70.44
74474;BME280;62922;-6.168;106.796;2023-02-28T05:37:16;101050.53;;;29.49;70.59
74474;BME280;62922;-6.168;106.796;2023-02-28T05:39:42;101046.56;;;29.50;70.52
74474;BME280;62922;-6.168;106.796;2023-02-28T05:42:08;101043.47;;;29.52;70.36
74474;BME280;62922;-6.168;106.796;2023-02-28T05:44:34;101041.13;;;29.54;70.50
74474;BME280;62922;-6.168;106.796;2023-02-28T05:47:00;101034.06;;;29.56;70.36
74474;BME280;62922;-6.168;106.796;2023-02-28T05:49:26;101031.25;;;29.56;70.34
74474;BME280;62922;-6.168;106.796;2023-02-28T05:51:52;101024.16;;;29.59;70.38
74474;BME280;62922;-6.168;106.796;2023-02-28T05:54:18;101029.47;;;29.60;70.21
74474;BME280;62922;-6.168;106.796;2023-02-28T05:56:44;101011.94;;;29.63;70.22
74474;BME280;62922;-6.168;106.796;2023-02-28T05:59:11;101010.81;;;29.64;70.21
74474;BME280;62922;-6.168;106.796;2023-02-28T06:04:04;101003.09;;;29.70;70.01
74474;BME280;62922;-6.168;106.796;2023-02-28T06:06:31;101001.09;;;29.70;70.04
74474;BME280;62922;-6.168;106.796;2023-02-28T06:08:59;101001.59;;;29.73;70.09
74474;BME280;62922;-6.168;106.796;2023-02-28T06:11:26;100994.53;;;29.75;70.13
74474;BME280;62922;-6.168;106.796;2023-02-28T06:13:54;100988.91;;;29.75;70.06
74474;BME280;62922;-6.168;106.796;2023-02-28T06:16:21;100989.72;;;29.76;70.15
74474;BME280;62922;-6.168;106.796;2023-02-28T06:18:46;100975.34;;;29.77;70.23
74474;BME280;62922;-6.168;106.796;2023-02-28T06:21:12;100980.66;;;29.79;69.78
74474;BME280;62922;-6.168;106.796;2023-02-28T06:23:38;100971.88;;;29.80;70.06
74474;BME280;62922;-6.168;106.796;2023-02-28T06:26:05;100973.56;;;29.81;69.70
74474;BME280;62922;-6.168;106.796;2023-02-28T06:28:31;100975.19;;;29.82;69.96
74474;BME280;62922;-6.168;106.796;2023-02-28T06:30:57;100983.31;;;29.84;69.95
74474;BME280;62922;-6.168;106.796;2023-02-28T06:33:23;100977.69;;;29.84;69.81
74474;BME280;62922;-6.168;106.796;2023-02-28T06:35:52;100972.91;;;29.84;69.83
74474;BME280;62922;-6.168;106.796;2023-02-28T06:38:18;100979.03;;;29.86;69.85
74474;BME280;62922;-6.168;106.796;2023-02-28T06:40:44;100963.28;;;29.85;69.68
74474;BME280;62922;-6.168;106.796;2023-02-28T06:43:10;100962.16;;;29.86;69.70
74474;BME280;62922;-6.168;106.796;2023-02-28T06:45:41;100971.09;;;29.88;69.49
74474;BME280;62922;-6.168;106.796;2023-02-28T06:48:08;100971.94;;;29.89;69.41
74474;BME280;62922;-6.168;106.796;2023-02-28T06:50:34;100975.56;;;29.89;69.22
74474;BME280;62922;-6.168;106.796;2023-02-28T06:53:00;100974.44;;;29.90;69.28
74474;BME280;62922;-6.168;106.796;2023-02-28T06:55:25;100975.25;;;29.91;69.40
74474;BME280;62922;-6.168;106.796;2023-02-28T06:57:51;101014.34;;;29.92;69.40
74474;BME280;62922;-6.168;106.796;2023-02-28T07:00:17;101048.41;;;29.91;69.06
74474;BME280;62922;-6.168;106.796;2023-02-28T07:02:43;101037.97;;;29.91;69.12
74474;BME280;62922;-6.168;106.796;2023-02-28T07:05:09;101009.84;;;29.91;68.89
74474;BME280;62922;-6.168;106.796;2023-02-28T07:07:35;101005.38;;;29.90;69.05
74474;BME280;62922;-6.168;106.796;2023-02-28T07:10:03;101007.69;;;29.88;69.23
74474;BME280;62922;-6.168;106.796;2023-02-28T07:12:29;100995.91;;;29.86;69.34
74474;BME280;62922;-6.168;106.796;2023-02-28T07:14:55;101002.69;;;29.85;69.22
74474;BME280;62922;-6.168;106.796;2023-02-28T07:17:22;100990.94;;;29.83;69.28
74474;BME280;62922;-6.168;106.796;2023-02-28T07:19:47;100980.81;;;29.82;69.49
74474;BME280;62922;-6.168;106.796;2023-02-28T07:22:13;100973.56;;;29.81;69.56
74474;BME280;62922;-6.168;106.796;2023-02-28T07:24:39;100969.56;;;29.82;69.30
74474;BME280;62922;-6.168;106.796;2023-02-28T07:27:05;100960.63;;;29.80;69.43
74474;BME280;62922;-6.168;106.796;2023-02-28T07:29:31;100961.47;;;29.81;69.26
74474;BME280;62922;-6.168;106.796;2023-02-28T07:31:57;100947.72;;;29.79;69.43
74474;BME280;62922;-6.168;106.796;2023-02-28T07:34:23;100947.72;;;29.79;69.17
74474;BME280;62922;-6.168;106.796;2023-02-28T07:36:52;101001.97;;;29.80;69.02
74474;BME280;62922;-6.168;106.796;2023-02-28T07:39:21;101031.28;;;29.79;68.71
74474;BME280;62922;-6.168;106.796;2023-02-28T07:41:47;101030.44;;;29.78;68.88
74474;BME280;62922;-6.168;106.796;2023-02-28T07:44:13;101035.06;;;29.74;69.17
74474;BME280;62922;-6.168;106.796;2023-02-28T07:46:38;101033.72;;;29.72;69.22
74474;BME280;62922;-6.168;106.796;2023-02-28T07:49:05;101045.34;;;29.65;69.43
74474;BME280;62922;-6.168;106.796;2023-02-28T07:51:31;101057.59;;;29.60;68.63
74474;BME280;62922;-6.168;106.796;2023-02-28T07:53:57;101057.19;;;29.53;68.31
74474;BME280;62922;-6.168;106.796;2023-02-28T07:56:23;101042.94;;;29.50;68.38
74474;BME280;62922;-6.168;106.796;2023-02-28T07:58:48;101031.19;;;29.48;68.07
74474;BME280;62922;-6.168;106.796;2023-02-28T08:01:14;101029.22;;;29.48;68.17
74474;BME280;62922;-6.168;106.796;2023-02-28T08:03:40;101028.38;;;29.48;68.60
74474;BME280;62922;-6.168;106.796;2023-02-28T08:06:07;101018.25;;;29.47;68.94
74474;BME280;62922;-6.168;106.796;2023-02-28T08:08:33;101008.16;;;29.46;69.13
74474;BME280;62922;-6.168;106.796;2023-02-28T08:11:00;101009.00;;;29.46;68.49
74474;BME280;62922;-6.168;106.796;2023-02-28T08:13:26;101006.50;;;29.45;68.56
74474;BME280;62922;-6.168;106.796;2023-02-28T08:15:53;100993.09;;;29.42;68.13
74474;BME280;62922;-6.168;106.796;2023-02-28T08:18:20;100994.25;;;29.41;68.09
74474;BME280;62922;-6.168;106.796;2023-02-28T08:20:46;100998.50;;;29.38;67.58
74474;BME280;62922;-6.168;106.796;2023-02-28T08:23:12;100977.28;;;29.32;67.22
74474;BME280;62922;-6.168;106.796;2023-02-28T08:25:38;100971.66;;;29.32;67.10
74474;BME280;62922;-6.168;106.796;2023-02-28T08:28:04;100947.84;;;29.30;66.83
74474;BME280;62922;-6.168;106.796;2023-02-28T08:30:29;100935.78;;;29.29;66.86
74474;BME280;62922;-6.168;106.796;2023-02-28T08:32:55;100938.06;;;29.27;66.45
74474;BME280;62922;-6.168;106.796;2023-02-28T08:35:21;100957.75;;;29.27;66.66
74474;BME280;62922;-6.168;106.796;2023-02-28T08:37:48;100973.97;;;29.30;66.79
74474;BME280;62922;-6.168;106.796;2023-02-28T08:40:14;100982.09;;;29.32;66.73
74474;BME280;62922;-6.168;106.796;2023-02-28T08:42:47;100966.03;;;29.32;67.22
74474;BME280;62922;-6.168;106.796;2023-02-28T08:45:14;100968.03;;;29.32;67.53
74474;BME280;62922;-6.168;106.796;2023-02-28T08:47:40;100976.47;;;29.32;67.80
74474;BME280;62922;-6.168;106.796;2023-02-28T08:50:06;100970.03;;;29.31;67.75
74474;BME280;62922;-6.168;106.796;2023-02-28T08:52:33;100975.13;;;29.29;67.44
74474;BME280;62922;-6.168;106.796;2023-02-28T08:55:01;100982.19;;;29.27;67.40
74474;BME280;62922;-6.168;106.796;2023-02-28T08:57:27;100975.44;;;29.28;67.84
74474;BME280;62922;-6.168;106.796;2023-02-28T08:59:52;100972.13;;;29.26;67.57
74474;BME280;62922;-6.168;106.796;2023-02-28T09:02:18;100974.94;;;29.26;67.59
74474;BME280;62922;-6.168;106.796;2023-02-28T09:04:47;100972.63;;;29.28;67.60
74474;BME280;62922;-6.168;106.796;2023-02-28T09:07:15;100964.22;;;29.28;67.52
74474;BME280;62922;-6.168;106.796;2023-02-28T09:09:41;100975.13;;;29.29;67.31
74474;BME280;62922;-6.168;106.796;2023-02-28T09:12:21;100965.53;;;29.30;67.49
74474;BME280;62922;-6.168;106.796;2023-02-28T09:14:48;100963.22;;;29.32;67.53
74474;BME280;62922;-6.168;106.796;2023-02-28T09:17:13;100965.25;;;29.32;67.34
74474;BME280;62922;-6.168;106.796;2023-02-28T09:19:40;100981.78;;;29.33;67.42
74474;BME280;62922;-6.168;106.796;2023-02-28T09:22:06;100987.41;;;29.33;67.49
74474;BME280;62922;-6.168;106.796;2023-02-28T09:24:32;100985.91;;;29.36;67.33
74474;BME280;62922;-6.168;106.796;2023-02-28T09:27:00;100988.72;;;29.36;67.97
74474;BME280;62922;-6.168;106.796;2023-02-28T09:29:26;100988.72;;;29.36;67.95
74474;BME280;62922;-6.168;106.796;2023-02-28T09:31:52;100991.25;;;29.37;68.11
74474;BME280;62922;-6.168;106.796;2023-02-28T09:34:18;100995.19;;;29.36;68.45
74474;BME280;62922;-6.168;106.796;2023-02-28T09:36:43;100992.06;;;29.38;68.11
74474;BME280;62922;-6.168;106.796;2023-02-28T09:39:09;100988.09;;;29.39;68.30
74474;BME280;62922;-6.168;106.796;2023-02-28T09:41:38;101000.16;;;29.39;68.02
74474;BME280;62922;-6.168;106.796;2023-02-28T09:44:15;100995.38;;;29.40;67.92
74474;BME280;62922;-6.168;106.796;2023-02-28T09:46:43;101004.31;;;29.42;67.67
74474;BME280;62922;-6.168;106.796;2023-02-28T09:49:12;101003.50;;;29.41;67.56
74474;BME280;62922;-6.168;106.796;2023-02-28T09:54:13;101006.81;;;29.43;67.54
74474;BME280;62922;-6.168;106.796;2023-02-28T09:56:45;101017.25;;;29.43;67.35
74474;BME280;62922;-6.168;106.796;2023-02-28T10:01:55;101015.75;;;29.45;67.57
74474;BME280;62922;-6.168;106.796;2023-02-28T10:06:59;101009.00;;;29.46;67.35
74474;BME280;62922;-6.168;106.796;2023-02-28T10:09:31;101012.63;;;29.47;67.55
74474;BME280;62922;-6.168;106.796;2023-02-28T10:12:02;101019.94;;;29.48;67.56
74474;BME280;62922;-6.168;106.796;2023-02-28T10:14:29;101015.97;;;29.49;67.56
74474;BME280;62922;-6.168;106.796;2023-02-28T10:17:20;101021.91;;;29.47;67.28
74474;BME280;62922;-6.168;106.796;2023-02-28T10:24:44;101032.81;;;29.49;67.68
74474;BME280;62922;-6.168;106.796;2023-02-28T10:27:13;101031.19;;;29.48;67.62
74474;BME280;62922;-6.168;106.796;2023-02-28T10:29:40;101038.44;;;29.49;67.84
74474;BME280;62922;-6.168;106.796;2023-02-28T10:32:08;101037.66;;;29.48;67.77
74474;BME280;62922;-6.168;106.796;2023-02-28T10:34:36;101044.06;;;29.49;67.96
74474;BME280;62922;-6.168;106.796;2023-02-28T10:37:02;101040.44;;;29.48;67.86
74474;BME280;62922;-6.168;106.796;2023-02-28T10:39:44;101045.25;;;29.48;68.01
74474;BME280;62922;-6.168;106.796;2023-02-28T10:44:47;101054.81;;;29.47;67.91
74474;BME280;62922;-6.168;106.796;2023-02-28T10:47:15;101059.28;;;29.48;68.08
74474;BME280;62922;-6.168;106.796;2023-02-28T10:49:49;101058.78;;;29.46;67.96
74474;BME280;62922;-6.168;106.796;2023-02-28T10:55:25;101073.69;;;29.46;68.03
74474;BME280;62922;-6.168;106.796;2023-02-28T10:57:50;101071.16;;;29.45;67.88
74474;BME280;62922;-6.168;106.796;2023-02-28T11:02:44;101071.47;;;29.43;68.02
74474;BME280;62922;-6.168;106.796;2023-02-28T11:08:04;101085.84;;;29.42;68.40
74474;BME280;62922;-6.168;106.796;2023-02-28T11:10:31;101100.75;;;29.42;68.14
74474;BME280;62922;-6.168;106.796;2023-02-28T11:13:00;101111.16;;;29.42;68.35
74474;BME280;62922;-6.168;106.796;2023-02-28T11:15:28;101112.31;;;29.41;68.44
74474;BME280;62922;-6.168;106.796;2023-02-28T11:17:56;101120.75;;;29.41;68.15
74474;BME280;62922;-6.168;106.796;2023-02-28T11:20:24;101123.25;;;29.42;68.77
74474;BME280;62922;-6.168;106.796;2023-02-28T11:22:50;101136.78;;;29.40;68.73
74474;BME280;62922;-6.168;106.796;2023-02-28T11:25:26;101137.63;;;29.41;69.00
74474;BME280;62922;-6.168;106.796;2023-02-28T11:27:56;101128.34;;;29.40;68.66
74474;BME280;62922;-6.168;106.796;2023-02-28T11:30:25;101131.47;;;29.39;68.80
74474;BME280;62922;-6.168;106.796;2023-02-28T11:32:52;101133.44;;;29.38;68.95
74474;BME280;62922;-6.168;106.796;2023-02-28T11:35:21;101135.75;;;29.36;69.02
74474;BME280;62922;-6.168;106.796;2023-02-28T11:37:48;101135.75;;;29.36;69.26
74474;BME280;62922;-6.168;106.796;2023-02-28T11:40:15;101141.38;;;29.36;68.88
74474;BME280;62922;-6.168;106.796;2023-02-28T11:45:36;101150.13;;;29.35;69.01
74474;BME280;62922;-6.168;106.796;2023-02-28T11:50:46;101158.56;;;29.35;69.56
74474;BME280;62922;-6.168;106.796;2023-02-28T11:53:30;101158.88;;;29.33;69.32
74474;BME280;62922;-6.168;106.796;2023-02-28T11:56:10;101160.00;;;29.32;69.56
74474;BME280;62922;-6.168;106.796;2023-02-28T12:08:59;101179.47;;;29.29;69.70
74474;BME280;62922;-6.168;106.796;2023-02-28T12:11:40;101185.09;;;29.29;69.62
74474;BME280;62922;-6.168;106.796;2023-02-28T12:24:22;101195.50;;;29.28;69.41
74474;BME280;62922;-6.168;106.796;2023-02-28T12:26:51;101189.38;;;29.26;70.20
74474;BME280;62922;-6.168;106.796;2023-02-28T12:34:22;101188.53;;;29.26;69.58
74474;BME280;62922;-6.168;106.796;2023-02-28T12:36:51;101196.13;;;29.25;70.00
74474;BME280;62922;-6.168;106.796;2023-02-28T12:39:32;101198.09;;;29.25;69.95
74474;BME280;62922;-6.168;106.796;2023-02-28T12:42:01;101194.81;;;29.23;70.12
74474;BME280;62922;-6.168;106.796;2023-02-28T12:44:34;101196.78;;;29.22;70.00
74474;BME280;62922;-6.168;106.796;2023-02-28T12:47:03;101201.56;;;29.22;69.84
74474;BME280;62922;-6.168;106.796;2023-02-28T12:49:37;101191.47;;;29.21;69.66
74474;BME280;62922;-6.168;106.796;2023-02-28T12:52:04;101201.88;;;29.20;69.46
74474;BME280;62922;-6.168;106.796;2023-02-28T12:54:41;101207.16;;;29.22;69.95
74474;BME280;62922;-6.168;106.796;2023-02-28T12:59:57;101215.09;;;29.20;69.94
74474;BME280;62922;-6.168;106.796;2023-02-28T13:10:11;101224.16;;;29.17;70.04
74474;BME280;62922;-6.168;106.796;2023-02-28T13:12:46;101226.97;;;29.17;69.99
74474;BME280;62922;-6.168;106.796;2023-02-28T13:15:24;101226.13;;;29.16;70.36
74474;BME280;62922;-6.168;106.796;2023-02-28T13:17:53;101224.16;;;29.17;70.13
74474;BME280;62922;-6.168;106.796;2023-02-28T13:22:49;101224.75;;;29.14;70.24
74474;BME280;62922;-6.168;106.796;2023-02-28T13:25:53;101216.31;;;29.14;69.86
74474;BME280;62922;-6.168;106.796;2023-02-28T13:28:02;101223.94;;;29.13;69.79
74474;BME280;62922;-6.168;106.796;2023-02-28T13:38:09;101245.91;;;29.11;69.86
74474;BME280;62922;-6.168;106.796;2023-02-28T13:40:35;101252.34;;;29.12;70.06
74474;BME280;62922;-6.168;106.796;2023-02-28T13:43:06;101262.75;;;29.11;69.88
74474;BME280;62922;-6.168;106.796;2023-02-28T13:45:35;101276.81;;;29.11;69.98
74474;BME280;62922;-6.168;106.796;2023-02-28T13:48:04;101281.56;;;29.11;70.03
74474;BME280;62922;-6.168;106.796;2023-02-28T13:50:40;101296.75;;;29.10;70.16
74474;BME280;62922;-6.168;106.796;2023-02-28T13:58:08;101284.16;;;29.07;70.18
74474;BME280;62922;-6.168;106.796;2023-02-28T14:05:32;101301.00;;;29.07;70.45
74474;BME280;62922;-6.168;106.796;2023-02-28T14:07:59;101300.16;;;29.07;69.99
74474;BME280;62922;-6.168;106.796;2023-02-28T14:10:30;101306.31;;;29.09;70.10
74474;BME280;62922;-6.168;106.796;2023-02-28T14:17:55;101326.63;;;29.06;70.34
74474;BME280;62922;-6.168;106.796;2023-02-28T14:20:22;101330.56;;;29.05;70.41
74474;BME280;62922;-6.168;106.796;2023-02-28T14:27:53;101325.56;;;29.02;70.81
74474;BME280;62922;-6.168;106.796;2023-02-28T14:32:58;101321.38;;;28.99;70.21
74474;BME280;62922;-6.168;106.796;2023-02-28T14:37:55;101323.38;;;28.99;70.59
74474;BME280;62922;-6.168;106.796;2023-02-28T14:40:29;101322.22;;;29.00;70.48
74474;BME280;62922;-6.168;106.796;2023-02-28T14:42:57;101319.72;;;28.98;70.39
74474;BME280;62922;-6.168;106.796;2023-02-28T14:45:24;101319.72;;;28.98;70.44
74474;BME280;62922;-6.168;106.796;2023-02-28T14:47:52;101318.88;;;28.98;70.33
74474;BME280;62922;-6.168;106.796;2023-02-28T14:50:20;101316.91;;;28.98;70.56
74474;BME280;62922;-6.168;106.796;2023-02-28T14:52:46;101318.88;;;28.98;70.47
74474;BME280;62922;-6.168;106.796;2023-02-28T14:55:14;101318.88;;;28.98;70.50
74474;BME280;62922;-6.168;106.796;2023-02-28T14:57:41;101316.91;;;28.98;70.30